Weather reports worldwide

Advertisment
Puerto de san Isidro, Spain (8057): temperature & dewpoint: 12.01.2018 07:00:00 - 18.01.2018 07:00:00 (CET)Puerto de san Isidro, Spain (8057): wind speed & gusts: 12.01.2018 07:00:00 - 18.01.2018 07:00:00 (CET)Puerto de san Isidro, Spain (8057): wind direction: 12.01.2018 07:00:00 - 18.01.2018 07:00:00 (CET)Puerto de san Isidro, Spain (8057): visibility: 12.01.2018 07:00:00 - 18.01.2018 07:00:00 (CET)Puerto de san Isidro, Spain (8057): sunshine duration: 12.01.2018 07:00:00 - 18.01.2018 07:00:00 (CET)Puerto de san Isidro, Spain (8057): precipitation: 12.01.2018 07:00:00 - 18.01.2018 07:00:00 (CET)
Date & Time tt [°C] td [°C] ff [km/h] ff [kn] fx [km/h] fx [kn] dd vv [km] sd [min] rr [mm]
18.01.2018 07:00:00 - - - - - - - - - -
18.01.2018 06:00:00 - - - - - - - - - -
18.01.2018 05:00:00 - - - - - - - - - -
18.01.2018 04:00:00 - - - - - - - - - -
18.01.2018 03:00:00 - - - - - - - - - -
18.01.2018 02:00:00 - - - - - - - - - -
18.01.2018 01:00:00 - - - - - - - - - -
18.01.2018 00:00:00 - - - - - - - - - -
17.01.2018 23:00:00 - - - - - - - - - -
17.01.2018 22:00:00 - - - - - - - - - -
17.01.2018 21:00:00 - - - - - - - - - -
17.01.2018 20:00:00 - - - - - - - - - -
17.01.2018 19:00:00 - - - - - - - - - -
17.01.2018 18:00:00 - - - - - - - - - -
17.01.2018 17:00:00 - - - - - - - - - -
17.01.2018 16:00:00 - - - - - - - - - -
17.01.2018 15:00:00 - - - - - - - - - -
17.01.2018 14:00:00 - - - - - - - - - -
17.01.2018 13:00:00 0,4 -1,4 33 18 54 29 W 20 3 -
17.01.2018 12:00:00 0,3 -2,2 37 20 57 31 W 10 1 0,0
17.01.2018 11:00:00 0,1 -1,7 34 18 71 39 W 4,8 0 0,0
17.01.2018 10:00:00 0,3 -2,2 35 19 63 34 W 20 0 0,0
17.01.2018 09:00:00 0,5 -1,7 35 19 67 36 W 20 0 0,0
17.01.2018 08:00:00 1,0 -1,2 43 23 80 43 W 20 0 0,0
17.01.2018 07:00:00 1,6 -0,7 39 21 69 38 W 20 0 -
17.01.2018 06:00:00 2,3 -0,7 40 22 72 39 W 20 0 0,0
17.01.2018 05:00:00 2,6 -1,0 36 20 60 33 W 20 0 0,0
17.01.2018 04:00:00 3,4 0,6 31 17 62 33 W 20 0 0,0
17.01.2018 03:00:00 4,0 1,3 31 17 47 25 W 20 0 0,0
17.01.2018 02:00:00 4,6 1,5 29 15 53 28 WNW 20 0 0,0
17.01.2018 01:00:00 5,0 1,5 32 17 68 37 WNW 20 0 -
17.01.2018 00:00:00 5,5 1,5 38 21 71 39 WNW 20 0 0,0
16.01.2018 23:00:00 5,6 1,5 40 22 78 42 WNW 20 0 0,0
16.01.2018 22:00:00 6,0 1,1 41 22 68 37 WNW 20 0 0,0
16.01.2018 21:00:00 6,2 1,3 36 19 67 36 WNW 20 0 0,0
16.01.2018 20:00:00 6,4 1,1 24 13 49 26 WNW 20 0 0,0
16.01.2018 19:00:00 6,6 0,2 25 13 42 23 W 20 0 -
16.01.2018 18:00:00 7,1 1,3 25 13 40 22 W 20 5 0,0
16.01.2018 17:00:00 8,1 1,7 29 15 46 25 W 20 41 0,0
16.01.2018 16:00:00 8,4 1,7 28 15 42 23 W 20 60 0,0
16.01.2018 15:00:00 8,2 1,9 19 11 41 22 W 20 60 0,0
16.01.2018 14:00:00 7,8 1,7 24 13 42 23 W 20 60 0,0
16.01.2018 13:00:00 7,0 2,1 22 12 38 21 W 20 59 -
16.01.2018 12:00:00 6,4 2,5 22 12 49 26 W 20 60 0,0
16.01.2018 11:00:00 6,5 2,7 32 17 48 26 W 20 10 0,0
16.01.2018 10:00:00 5,5 2,5 26 14 54 29 W 20 0 0,0
16.01.2018 09:00:00 6,3 2,5 34 18 66 36 W 20 0 0,0
16.01.2018 08:00:00 7,0 2,7 38 20 68 37 W 20 0 0,0
16.01.2018 07:00:00 6,8 2,1 39 21 68 37 W 20 0 -
16.01.2018 06:00:00 6,1 1,3 28 15 41 22 W 20 0 0,0
16.01.2018 05:00:00 6,0 0,6 29 16 44 24 W 20 0 0,0
16.01.2018 04:00:00 5,9 1,1 29 16 46 25 W 20 0 0,0
16.01.2018 03:00:00 6,6 1,3 34 18 50 27 W 20 0 0,0
16.01.2018 02:00:00 6,2 2,5 29 16 53 28 W 20 0 0,0
16.01.2018 01:00:00 6,3 2,9 37 20 56 30 WNW 20 0 -
16.01.2018 00:00:00 5,6 2,9 27 15 50 27 W 20 0 0,0
15.01.2018 23:00:00 6,0 3,0 30 16 51 28 WNW 20 0 0,0
15.01.2018 22:00:00 6,0 2,9 27 15 43 23 WNW 20 0 0,0
15.01.2018 21:00:00 5,2 2,7 20 11 31 17 W 20 0 0,0
15.01.2018 20:00:00 4,4 2,1 12 7 24 13 WNW 20 0 0,0
15.01.2018 19:00:00 1,3 -0,5 2 1 10 5 E 20 0 -
15.01.2018 18:00:00 0,3 -3,3 6 4 13 7 E 20 0 0,0
15.01.2018 17:00:00 0,7 -3,6 5 3 14 8 E 20 0 0,0
15.01.2018 16:00:00 1,3 -5,1 11 6 17 9 ENE 20 0 0,0
15.01.2018 15:00:00 1,6 -6,4 6 4 10 5 E 20 1 0,0
15.01.2018 14:00:00 0,7 -5,7 7 4 11 6 E 20 18 0,0
15.01.2018 13:00:00 -0,4 -6,7 4 2 9 5 SE 20 46 -
15.01.2018 12:00:00 -2,2 -9,0 4 2 9 5 ENE 20 30 0,0
15.01.2018 11:00:00 -5,4 -11,7 5 3 9 5 W 20 0 0,0
15.01.2018 10:00:00 -4,9 -8,6 2 1 - - W 20 0 0,0
15.01.2018 09:00:00 -6,1 -9,4 2 1 7 4 SE 20 0 0,0
15.01.2018 08:00:00 -6,3 -8,2 3 1 7 4 SSE 20 0 0,0
15.01.2018 07:00:00 -6,8 -8,6 3 2 7 4 SSE 20 0 -
15.01.2018 06:00:00 -8,0 -9,9 4 2 9 5 W 20 0 0,0
15.01.2018 05:00:00 -6,5 -7,8 3 2 14 8 WNW 20 0 0,0
15.01.2018 04:00:00 -3,4 -4,5 14 8 23 12 W 4,8 0 0,0
15.01.2018 03:00:00 -2,2 -3,0 14 7 25 14 W 5 0 0,0
15.01.2018 02:00:00 -2,0 -2,7 21 11 31 17 W 3,7 0 0,0
15.01.2018 01:00:00 -2,1 -3,0 13 7 23 12 WNW 4,6 0 -
15.01.2018 00:00:00 -2,0 -2,7 16 9 28 15 W 8 0 0,0
14.01.2018 23:00:00 -1,7 -2,5 19 11 31 17 W 2,3 0 0,0
14.01.2018 22:00:00 -1,7 -2,5 22 12 36 19 W 0,2 0 0,0
14.01.2018 21:00:00 -1,6 -2,5 25 14 36 19 W 5 0 0,0
14.01.2018 20:00:00 -1,7 -2,5 15 8 27 15 W 1,0 0 0,0
14.01.2018 19:00:00 -1,5 -3,0 15 8 23 13 W 3,6 0 -
14.01.2018 18:00:00 -1,2 -2,5 12 7 36 20 WNW 0,8 0 0,0
14.01.2018 17:00:00 -1,0 -2,7 20 11 29 16 W 1,3 29 0,0
14.01.2018 16:00:00 -0,1 -2,7 17 9 29 16 W 4,4 59 0,0
14.01.2018 15:00:00 -1,1 -2,7 22 12 33 18 W 1,1 54 0,0
14.01.2018 14:00:00 -1,2 -3,3 22 12 30 16 W 2,4 50 0,0
14.01.2018 13:00:00 -1,4 -3,6 16 9 30 16 W 2,7 7 -
14.01.2018 12:00:00 -1,9 -4,2 21 11 31 17 W 17 11 0,0
14.01.2018 11:00:00 -2,4 -3,9 18 10 37 20 W 2,4 0 0,0
14.01.2018 10:00:00 -2,4 -4,2 19 10 31 17 W 20 0 0,0
14.01.2018 09:00:00 -2,2 -4,5 21 11 37 20 W 20 0 0,0
14.01.2018 08:00:00 -2,7 -4,5 16 9 34 19 W 20 0 0,0
14.01.2018 07:00:00 -2,2 -4,8 25 13 34 18 W 20 0 -
14.01.2018 06:00:00 -2,2 -4,2 16 8 29 15 W 20 0 0,0
14.01.2018 05:00:00 -2,0 -4,5 16 8 25 14 W 20 0 0,0
14.01.2018 04:00:00 -2,1 -4,2 16 9 28 15 W 20 0 0,0
14.01.2018 03:00:00 -2,9 -4,5 10 6 16 9 W 20 0 0,0
14.01.2018 02:00:00 -3,1 -5,4 12 6 23 12 W 20 0 0,0
14.01.2018 01:00:00 -1,9 -3,6 16 9 32 17 W 20 0 -
14.01.2018 00:00:00 -1,9 -3,3 21 11 32 17 W 20 0 0,0
13.01.2018 23:00:00 -1,3 -2,5 19 11 34 18 W 20 0 0,0
13.01.2018 22:00:00 -1,1 -2,2 25 13 41 22 W 20 0 0,0
13.01.2018 21:00:00 -0,7 -2,2 19 11 40 22 W 10 0 0,0
13.01.2018 20:00:00 -0,9 -1,7 21 11 28 15 W 2,1 0 0,2
13.01.2018 19:00:00 -0,9 -2,0 18 10 28 15 W 20 0 -
13.01.2018 18:00:00 -0,4 -1,4 18 10 - - W 20 0 0,2
13.01.2018 17:00:00 -0,5 -1,4 22 12 35 19 W 3,1 0 0,4
13.01.2018 16:00:00 -0,1 -1,0 2 1 9 5 SSE 1,6 0 0,8
13.01.2018 15:00:00 -0,9 -1,7 9 5 13 7 ENE 2,2 0 0,4
13.01.2018 14:00:00 -0,8 -1,7 11 6 17 9 ENE 1,0 0 0,6
13.01.2018 13:00:00 -1,2 -2,0 15 8 25 14 ENE 0,6 0 -
13.01.2018 12:00:00 -1,6 -2,5 19 10 40 22 E 1,5 0 0,2
13.01.2018 11:00:00 -1,8 -2,7 27 15 37 20 ENE 0,6 0 0,0
13.01.2018 10:00:00 -2,0 -2,7 27 15 36 19 ENE 1,3 0 0,2
13.01.2018 09:00:00 -2,2 -3,0 17 9 34 18 E 2,6 0 0,0
13.01.2018 08:00:00 -2,4 -3,3 27 15 34 18 E 3,8 0 0,0
13.01.2018 07:00:00 -2,5 -3,6 17 9 32 18 E 4,1 0 -
13.01.2018 06:00:00 -2,4 -3,6 16 9 35 19 ENE 20 0 0,0
13.01.2018 05:00:00 -2,5 -3,6 14 8 38 20 E 20 0 0,0
13.01.2018 04:00:00 -2,3 -3,9 30 16 44 24 E 20 0 0,0
13.01.2018 03:00:00 -2,3 -3,6 25 14 43 23 E 20 0 0,0
13.01.2018 02:00:00 -2,1 -3,3 16 8 27 15 ENE 20 0 0,0
13.01.2018 01:00:00 -2,0 -3,3 11 6 26 14 NE 20 0 -
13.01.2018 00:00:00 -2,0 -3,0 21 11 29 16 ENE 12 0 0,0
12.01.2018 23:00:00 -1,9 -3,0 21 11 34 19 ENE 12 0 0,0
12.01.2018 22:00:00 -1,7 -2,7 17 9 24 13 ENE 8 0 0,0
12.01.2018 21:00:00 -1,8 -3,0 11 6 16 9 E 15 0 0,0
12.01.2018 20:00:00 -1,9 -3,3 7 4 14 8 ESE 20 0 0,0
12.01.2018 19:00:00 -1,3 -3,0 9 5 23 12 E 20 0 -
12.01.2018 18:00:00 -0,9 -2,7 12 6 16 9 E 20 0 0,0
12.01.2018 17:00:00 -0,4 -2,5 10 6 14 8 ESE 20 0 0,0
12.01.2018 16:00:00 -0,2 -2,0 11 6 16 9 E 20 7 0,0
12.01.2018 15:00:00 -0,5 -2,2 11 6 19 11 E 20 0 0,0
12.01.2018 14:00:00 -0,6 -2,0 13 7 21 12 E 20 23 0,0
12.01.2018 13:00:00 -1,9 -3,3 8 4 11 6 E 20 52 -
12.01.2018 12:00:00 -2,7 -3,9 4 2 11 6 SE 20 60 0,0
12.01.2018 11:00:00 -5,0 -6,0 6 3 12 7 ESE 20 7 0,0
12.01.2018 10:00:00 -5,7 -7,1 7 4 18 10 ESE 20 0 0,0
12.01.2018 09:00:00 -6,2 -7,5 6 3 11 6 E 20 0 0,0
12.01.2018 08:00:00 -6,3 -7,8 5 3 16 9 ESE 20 0 0,0
12.01.2018 07:00:00 -5,2 -6,4 - - - - - 20 0 -

tt = temperature
td = dewpoint
ff = wind speed
fx = gusts
dd = wind direction
vv = visibility
sd = sunshine duration
rr = precipitation

Next stations